createdAt,value
2019-03-09T00:01:48.645Z,78.73
2019-03-09T00:04:18.970Z,78.39
2019-03-09T00:06:49.269Z,77.72
2019-03-09T00:09:19.505Z,77.65
2019-03-09T00:11:50.221Z,77.75
2019-03-09T00:14:20.784Z,76.97
2019-03-09T00:16:51.209Z,77.18
2019-03-09T00:19:21.521Z,76.61
2019-03-09T00:21:52.083Z,76.03
2019-03-09T00:24:44.081Z,75.70
2019-03-09T00:27:36.292Z,75.33
2019-03-09T00:30:19.902Z,74.89
2019-03-09T00:32:50.332Z,76.22
2019-03-09T00:35:20.586Z,75.56
2019-03-09T00:37:50.939Z,76.47
2019-03-09T00:40:21.338Z,76.93
2019-03-09T00:42:51.570Z,76.92
2019-03-09T00:45:21.864Z,77.50
2019-03-09T00:47:52.195Z,77.98
2019-03-09T00:50:22.469Z,77.50
2019-03-09T00:52:52.792Z,77.65
2019-03-09T00:55:22.992Z,77.42
2019-03-09T00:57:53.298Z,77.63
2019-03-09T01:00:23.553Z,77.52
2019-03-09T01:02:54.140Z,77.47
2019-03-09T01:05:24.404Z,77.70
2019-03-09T01:07:54.684Z,77.97
2019-03-09T01:10:25.051Z,78.22
2019-03-09T01:12:55.379Z,78.41
2019-03-09T01:15:27.007Z,78.43
2019-03-09T01:17:57.247Z,78.18
2019-03-09T01:20:27.526Z,78.57
2019-03-09T01:22:57.781Z,78.39
2019-03-09T01:25:28.443Z,78.14
2019-03-09T01:27:58.682Z,77.76
2019-03-09T01:30:28.920Z,77.57
2019-03-09T01:32:59.166Z,77.19
2019-03-09T01:35:29.823Z,76.95
2019-03-09T01:38:00.147Z,77.29
2019-03-09T01:40:30.407Z,77.58
2019-03-09T01:43:00.773Z,77.90
2019-03-09T01:45:31.038Z,78.28
2019-03-09T01:48:01.403Z,77.71
2019-03-09T01:50:31.693Z,77.48
2019-03-09T01:53:01.935Z,76.83
2019-03-09T01:55:32.137Z,76.68
2019-03-09T01:58:02.448Z,77.30
2019-03-09T02:00:33.002Z,77.17
2019-03-09T02:03:03.556Z,76.46
2019-03-09T02:05:35.015Z,76.18
2019-03-09T02:08:05.259Z,76.06
2019-03-09T02:10:35.566Z,75.74
2019-03-09T02:13:05.843Z,75.93
2019-03-09T02:15:36.185Z,75.54
2019-03-09T02:18:06.478Z,75.55
2019-03-09T02:20:37.156Z,74.82
2019-03-09T02:23:08.693Z,75.05
2019-03-09T02:25:39.018Z,74.30
2019-03-09T02:28:10.462Z,74.57
2019-03-09T02:30:40.702Z,74.08
2019-03-09T02:33:11.115Z,73.69
2019-03-09T02:35:41.598Z,73.57
2019-03-09T02:38:23.292Z,73.90
2019-03-09T02:40:53.675Z,72.99
2019-03-09T02:43:24.041Z,72.46
2019-03-09T02:45:54.370Z,72.67
2019-03-09T02:48:24.659Z,72.75
2019-03-09T02:50:58.050Z,71.94
2019-03-09T02:53:28.572Z,71.97
2019-03-09T02:55:59.035Z,71.84
2019-03-09T02:58:29.249Z,71.58
2019-03-09T03:01:18.508Z,71.58
2019-03-09T03:03:56.227Z,71.50
2019-03-09T03:06:26.616Z,71.17
2019-03-09T03:08:56.889Z,71.46
2019-03-09T03:11:27.237Z,71.45
2019-03-09T03:13:57.538Z,71.30
2019-03-09T03:16:27.930Z,70.73
2019-03-09T03:18:58.302Z,70.67
2019-03-09T03:21:30.213Z,70.68
2019-03-09T03:24:00.507Z,70.44
2019-03-09T03:26:30.995Z,70.94
2019-03-09T03:29:01.330Z,70.99
2019-03-09T03:31:31.574Z,70.55
2019-03-09T03:34:01.983Z,70.47
2019-03-09T03:36:32.719Z,70.26
2019-03-09T03:39:03.397Z,70.68
2019-03-09T03:41:33.812Z,70.47
2019-03-09T03:44:04.259Z,70.05
2019-03-09T03:46:34.595Z,70.31
2019-03-09T03:49:04.910Z,70.31
2019-03-09T03:51:35.170Z,70.59
2019-03-09T03:54:05.500Z,70.49
2019-03-09T03:56:35.942Z,69.93
2019-03-09T03:59:06.264Z,69.62
2019-03-09T04:01:36.569Z,69.56
2019-03-09T04:04:07.017Z,69.45
2019-03-09T04:06:37.702Z,68.94
2019-03-09T04:09:08.473Z,68.35
2019-03-09T04:11:39.201Z,68.48
2019-03-09T04:14:09.579Z,68.19
2019-03-09T04:16:39.790Z,68.07
2019-03-09T04:19:10.243Z,68.05
2019-03-09T04:21:40.589Z,67.66
2019-03-09T04:24:10.863Z,67.93
2019-03-09T04:26:41.121Z,68.27
2019-03-09T04:29:11.389Z,67.86
2019-03-09T04:31:41.808Z,67.68
2019-03-09T04:34:12.035Z,67.84
2019-03-09T04:36:42.435Z,69.74
2019-03-09T04:39:12.730Z,70.79
2019-03-09T04:41:43.004Z,71.41
2019-03-09T04:44:14.344Z,71.64
2019-03-09T04:46:44.599Z,71.91
2019-03-09T04:49:15.026Z,72.52
2019-03-09T04:51:45.340Z,72.94
2019-03-09T04:54:15.679Z,72.99
2019-03-09T04:56:45.965Z,72.99
2019-03-09T04:59:17.988Z,73.18
2019-03-09T05:01:48.231Z,72.98
2019-03-09T05:04:50.494Z,72.76
2019-03-09T05:07:26.888Z,72.64
2019-03-09T05:10:04.622Z,71.86
2019-03-09T05:12:34.862Z,70.84
2019-03-09T05:15:06.492Z,69.81
2019-03-09T05:17:36.794Z,68.84
2019-03-09T05:20:07.348Z,68.67
2019-03-09T05:22:38.613Z,67.93
2019-03-09T05:25:08.998Z,67.28
2019-03-09T05:27:39.389Z,66.87
2019-03-09T05:30:12.027Z,66.63
2019-03-09T05:32:42.669Z,66.51
2019-03-09T05:35:12.880Z,65.99
2019-03-09T05:37:43.551Z,66.12
2019-03-09T05:40:13.880Z,65.46
2019-03-09T05:42:44.199Z,66.21
2019-03-09T05:45:14.527Z,65.89
2019-03-09T05:47:44.814Z,66.28
2019-03-09T05:50:15.145Z,65.83
2019-03-09T05:52:46.530Z,66.37
2019-03-09T05:55:18.608Z,65.25
2019-03-09T05:57:48.895Z,65.51
2019-03-09T06:00:19.291Z,65.64
2019-03-09T06:02:49.869Z,65.85
2019-03-09T06:05:37.566Z,64.81
2019-03-09T06:08:08.730Z,65.26
2019-03-09T06:10:39.148Z,65.24
2019-03-09T06:13:09.512Z,65.68
2019-03-09T06:15:39.794Z,65.77
2019-03-09T06:18:10.452Z,64.78
2019-03-09T06:20:40.815Z,66.61
2019-03-09T06:23:11.308Z,67.01
2019-03-09T06:25:41.835Z,69.60
2019-03-09T06:28:12.104Z,69.15
2019-03-09T06:30:42.475Z,69.76
2019-03-09T06:33:29.715Z,71.01
2019-03-09T06:36:23.845Z,72.31
2019-03-09T06:39:07.499Z,72.24
2019-03-09T06:42:20.335Z,73.35
2019-03-09T06:44:50.927Z,74.21
2019-03-09T06:47:21.167Z,74.61
2019-03-09T06:49:51.430Z,75.60
2019-03-09T06:52:21.712Z,76.01
2019-03-09T06:54:52.008Z,76.35
2019-03-09T06:57:22.324Z,75.93
2019-03-09T06:59:52.694Z,77.55
2019-03-09T07:02:24.967Z,77.84
2019-03-09T07:04:55.246Z,77.71
2019-03-09T07:07:25.710Z,78.72
2019-03-09T07:09:56.151Z,77.15
2019-03-09T07:12:26.433Z,78.21
2019-03-09T07:15:28.958Z,77.84
2019-03-09T07:18:19.818Z,78.18
2019-03-09T07:20:50.100Z,78.13
2019-03-09T07:23:20.503Z,78.26
2019-03-09T07:25:50.945Z,78.70
2019-03-09T07:28:21.241Z,78.15
2019-03-09T07:30:51.556Z,78.85
2019-03-09T07:33:21.865Z,78.37
2019-03-09T07:35:52.121Z,78.40
2019-03-09T07:38:24.434Z,78.76
2019-03-09T07:40:54.831Z,80.32
2019-03-09T07:43:25.096Z,80.31
2019-03-09T07:45:56.470Z,81.14
2019-03-09T07:48:27.814Z,81.63
2019-03-09T07:50:58.060Z,82.37
2019-03-09T07:53:28.342Z,82.63
2019-03-09T07:55:59.085Z,82.37
2019-03-09T07:58:29.383Z,82.65
2019-03-09T08:00:59.632Z,82.70
2019-03-09T08:03:30.121Z,82.89
2019-03-09T08:06:00.689Z,83.76
2019-03-09T08:08:31.235Z,82.61
2019-03-09T08:11:01.725Z,82.93
2019-03-09T08:13:32.030Z,81.92
2019-03-09T08:16:02.293Z,81.19
2019-03-09T08:18:33.494Z,81.84
2019-03-09T08:21:03.809Z,81.33
2019-03-09T08:23:34.124Z,80.00
2019-03-09T08:26:04.517Z,79.70
2019-03-09T08:28:34.900Z,78.18
2019-03-09T08:31:05.161Z,77.59
2019-03-09T08:33:38.761Z,77.31
2019-03-09T08:36:09.053Z,76.63
2019-03-09T08:38:39.293Z,76.48
2019-03-09T08:41:09.778Z,75.86
2019-03-09T08:43:40.982Z,75.58
2019-03-09T08:46:11.236Z,73.96
2019-03-09T08:48:41.507Z,73.85
2019-03-09T08:51:11.966Z,73.59
2019-03-09T08:53:42.268Z,72.75
2019-03-09T08:56:12.509Z,73.47
2019-03-09T08:58:42.817Z,72.67
2019-03-09T09:01:13.122Z,72.08
2019-03-09T09:03:43.442Z,72.89
2019-03-09T09:06:13.687Z,71.32
2019-03-09T09:08:44.200Z,71.17
2019-03-09T09:11:14.483Z,71.17
2019-03-09T09:13:44.841Z,69.92
2019-03-09T09:16:15.334Z,69.70
2019-03-09T09:18:45.677Z,69.89
2019-03-09T09:21:15.919Z,70.68
2019-03-09T09:23:46.229Z,70.49
2019-03-09T09:26:16.456Z,71.05
2019-03-09T09:28:46.803Z,69.59
2019-03-09T09:31:17.042Z,69.44
2019-03-09T09:33:47.347Z,70.07
2019-03-09T09:36:17.554Z,68.96
2019-03-09T09:38:47.880Z,69.04
2019-03-09T09:41:18.267Z,66.69
2019-03-09T09:43:48.626Z,64.03
2019-03-09T09:46:18.873Z,66.72
2019-03-09T09:48:50.656Z,64.07
2019-03-09T09:51:21.074Z,65.86
2019-03-09T09:53:51.400Z,66.55
2019-03-09T09:56:21.783Z,67.45
2019-03-09T09:58:52.129Z,68.01
2019-03-09T10:01:22.297Z,67.68
2019-03-09T10:03:52.522Z,68.07
2019-03-09T10:06:23.223Z,67.49
2019-03-09T10:08:53.620Z,67.62
2019-03-09T10:11:24.777Z,67.32
2019-03-09T10:13:54.977Z,67.15
2019-03-09T10:16:25.365Z,64.48
2019-03-09T10:18:55.646Z,65.63
2019-03-09T10:21:25.928Z,65.22
2019-03-09T10:23:57.082Z,63.53
2019-03-09T10:26:27.589Z,62.36
2019-03-09T10:28:57.841Z,63.42
2019-03-09T10:31:29.030Z,64.07
2019-03-09T10:33:59.348Z,63.74
2019-03-09T10:36:29.824Z,63.22
2019-03-09T10:39:01.691Z,63.17
2019-03-09T10:41:33.647Z,63.43
2019-03-09T10:44:04.026Z,63.67
2019-03-09T10:46:34.630Z,63.66
2019-03-09T10:49:04.948Z,63.74
2019-03-09T10:51:35.309Z,62.85
2019-03-09T10:54:05.678Z,62.70
2019-03-09T10:56:35.993Z,62.78
2019-03-09T10:59:06.323Z,60.49
2019-03-09T11:01:36.657Z,60.97
2019-03-09T11:04:07.024Z,61.45
2019-03-09T11:06:37.359Z,61.75
2019-03-09T11:09:07.945Z,61.14
2019-03-09T11:11:38.391Z,60.36
2019-03-09T11:14:08.691Z,60.31
2019-03-09T11:16:38.948Z,60.81
2019-03-09T11:19:09.286Z,61.23
2019-03-09T11:21:39.601Z,61.18
2019-03-09T11:24:09.943Z,61.41
2019-03-09T11:26:40.393Z,61.02
2019-03-09T11:29:10.594Z,61.36
2019-03-09T11:31:40.813Z,61.18
2019-03-09T11:34:11.156Z,61.83
2019-03-09T11:36:41.367Z,61.62
2019-03-09T11:39:11.620Z,60.95
2019-03-09T11:41:41.922Z,61.59
2019-03-09T11:44:12.250Z,61.21
2019-03-09T11:46:42.490Z,60.60
2019-03-09T11:49:12.781Z,60.36
2019-03-09T11:51:43.092Z,60.67
2019-03-09T11:54:13.389Z,60.04
2019-03-09T11:56:43.663Z,60.66
2019-03-09T11:59:14.053Z,60.85
2019-03-09T12:01:44.399Z,60.52
2019-03-09T12:04:14.600Z,60.32
2019-03-09T12:06:44.984Z,60.77
2019-03-09T12:09:15.651Z,60.48
2019-03-09T12:11:59.052Z,60.50
2019-03-09T12:14:29.347Z,59.61
2019-03-09T12:16:59.692Z,59.81
2019-03-09T12:19:30.130Z,58.80
2019-03-09T12:22:00.431Z,59.29
2019-03-09T12:24:31.994Z,59.22
2019-03-09T12:27:02.202Z,59.51
2019-03-09T12:29:33.102Z,58.87
2019-03-09T12:32:03.351Z,58.68
2019-03-09T12:34:33.568Z,59.67
2019-03-09T12:37:06.302Z,59.11
2019-03-09T12:39:36.490Z,60.66
2019-03-09T12:42:06.918Z,61.96
2019-03-09T12:44:37.164Z,61.22
2019-03-09T12:47:07.396Z,62.04
2019-03-09T12:49:37.627Z,65.04
2019-03-09T12:52:07.956Z,66.96
2019-03-09T12:54:38.476Z,67.44
2019-03-09T12:57:09.741Z,69.39
2019-03-09T12:59:41.140Z,73.08
2019-03-09T13:02:13.694Z,74.45
2019-03-09T13:04:44.241Z,77.57
2019-03-09T13:07:14.445Z,76.50
2019-03-09T13:09:45.228Z,76.46
2019-03-09T13:12:15.827Z,77.03
2019-03-09T13:14:46.141Z,78.57
2019-03-09T13:17:20.608Z,78.44
2019-03-09T13:19:50.831Z,76.70
2019-03-09T13:22:21.158Z,76.68
2019-03-09T13:24:52.541Z,78.24
2019-03-09T13:27:22.945Z,76.63
2019-03-09T13:29:53.295Z,77.44
2019-03-09T13:32:23.617Z,75.25
2019-03-09T13:34:53.890Z,75.69
2019-03-09T13:37:24.183Z,76.47
2019-03-09T13:39:54.486Z,76.58
2019-03-09T13:42:25.018Z,73.88
2019-03-09T13:44:56.764Z,75.56
2019-03-09T13:47:27.041Z,75.37
2019-03-09T13:49:57.338Z,76.17
2019-03-09T13:52:28.045Z,74.49
2019-03-09T13:54:58.416Z,74.56
2019-03-09T13:57:28.665Z,74.24
2019-03-09T13:59:59.332Z,73.02
2019-03-09T14:02:29.559Z,73.12
2019-03-09T14:04:59.926Z,72.73
2019-03-09T14:07:30.184Z,74.46
2019-03-09T14:10:00.500Z,74.89
2019-03-09T14:12:31.028Z,75.71
2019-03-09T14:15:02.101Z,76.21
2019-03-09T14:17:32.531Z,75.71
2019-03-09T14:20:02.999Z,75.73
2019-03-09T14:22:33.307Z,75.76
2019-03-09T14:25:03.598Z,75.18
2019-03-09T14:27:34.989Z,75.83
2019-03-09T14:30:06.207Z,73.97
2019-03-09T14:32:36.438Z,76.16
2019-03-09T14:35:07.396Z,75.89
2019-03-09T14:37:37.790Z,75.01
2019-03-09T14:40:09.176Z,74.69
2019-03-09T14:42:39.524Z,75.79
2019-03-09T14:45:13.281Z,76.36
2019-03-09T14:47:43.615Z,77.55
2019-03-09T14:50:14.935Z,78.16
2019-03-09T14:52:46.422Z,77.24
2019-03-09T14:55:16.645Z,76.32
2019-03-09T14:57:46.962Z,76.46
2019-03-09T15:00:19.158Z,76.45
2019-03-09T15:02:49.333Z,77.01
2019-03-09T15:05:19.849Z,74.98
2019-03-09T15:07:50.428Z,73.49
2019-03-09T15:10:20.743Z,74.32
2019-03-09T15:12:51.202Z,73.18
2019-03-09T15:15:21.545Z,73.40
2019-03-09T15:17:51.747Z,74.12
2019-03-09T15:20:22.043Z,72.99
2019-03-09T15:22:52.321Z,72.68
2019-03-09T15:25:22.608Z,72.72
2019-03-09T15:27:52.853Z,73.22
2019-03-09T15:30:23.283Z,73.92
2019-03-09T15:32:53.577Z,73.77
2019-03-09T15:35:23.866Z,73.89
2019-03-09T15:37:54.152Z,73.15
2019-03-09T15:40:27.001Z,73.01
2019-03-09T15:42:57.184Z,71.70
2019-03-09T15:45:38.091Z,70.24
2019-03-09T15:48:08.395Z,70.57
2019-03-09T15:50:38.700Z,70.26
2019-03-09T15:53:16.429Z,67.22
2019-03-09T15:55:48.263Z,66.47
2019-03-09T15:58:18.630Z,67.47
2019-03-09T16:00:48.941Z,67.19
2019-03-09T16:03:19.563Z,66.33
2019-03-09T16:05:49.790Z,65.43
2019-03-09T16:08:20.228Z,66.29
2019-03-09T16:10:50.680Z,65.36
2019-03-09T16:13:21.011Z,64.43
2019-03-09T16:15:51.647Z,64.22
2019-03-09T16:18:21.915Z,63.81
2019-03-09T16:20:52.129Z,63.76
2019-03-09T16:23:22.716Z,63.77
2019-03-09T16:25:53.135Z,62.80
2019-03-09T16:28:23.326Z,62.27
2019-03-09T16:30:53.561Z,62.84
2019-03-09T16:33:23.905Z,62.95
2019-03-09T16:35:54.208Z,62.33
2019-03-09T16:38:24.516Z,62.89
2019-03-09T16:40:55.016Z,61.54
2019-03-09T16:43:25.287Z,61.97
2019-03-09T16:45:56.001Z,62.04
2019-03-09T16:48:26.250Z,61.90
2019-03-09T16:50:56.504Z,62.36
2019-03-09T16:53:26.742Z,62.79
2019-03-09T16:55:57.201Z,63.04
2019-03-09T16:58:27.583Z,63.14
2019-03-09T17:00:57.952Z,63.46
2019-03-09T17:03:28.230Z,62.77
2019-03-09T17:05:58.457Z,63.37
2019-03-09T17:08:28.774Z,62.72
2019-03-09T17:10:59.343Z,63.27
2019-03-09T17:13:29.898Z,62.52
2019-03-09T17:16:01.330Z,62.82
2019-03-09T17:18:36.148Z,61.84
2019-03-09T17:21:06.533Z,62.40
2019-03-09T17:23:40.926Z,61.78
2019-03-09T17:26:11.122Z,62.03
2019-03-09T17:28:41.323Z,61.62
2019-03-09T17:31:11.658Z,61.57
2019-03-09T17:33:42.013Z,61.58
2019-03-09T17:36:12.265Z,61.71
2019-03-09T17:38:42.568Z,61.45
2019-03-09T17:41:12.884Z,62.12
2019-03-09T17:43:43.137Z,61.42
2019-03-09T17:46:14.647Z,61.22
2019-03-09T17:48:44.921Z,60.73
2019-03-09T17:51:15.361Z,61.10
2019-03-09T17:53:45.864Z,61.39
2019-03-09T17:56:16.099Z,60.97
2019-03-09T17:58:50.177Z,61.83
2019-03-09T18:01:38.162Z,61.61
2019-03-09T18:04:08.771Z,62.48
2019-03-09T18:06:43.793Z,62.05
2019-03-09T18:09:18.708Z,62.03
2019-03-09T18:11:49.402Z,62.34
2019-03-09T18:14:21.266Z,62.02
2019-03-09T18:16:53.041Z,62.17
2019-03-09T18:19:23.533Z,62.78
2019-03-09T18:21:55.476Z,62.28
2019-03-09T18:24:25.771Z,62.83
2019-03-09T18:26:56.166Z,62.71
2019-03-09T18:29:26.508Z,63.58
2019-03-09T18:31:56.958Z,64.62
2019-03-09T18:34:27.442Z,64.69
2019-03-09T18:36:58.339Z,65.26
2019-03-09T18:39:29.220Z,65.28
2019-03-09T18:41:59.732Z,66.85
2019-03-09T18:44:35.269Z,67.71
2019-03-09T18:47:05.971Z,69.23
2019-03-09T18:49:43.764Z,71.29
2019-03-09T18:52:15.617Z,72.62
2019-03-09T18:54:46.361Z,74.66
2019-03-09T18:57:18.914Z,79.85
2019-03-09T18:59:49.255Z,81.92
2019-03-09T19:02:21.635Z,82.53
2019-03-09T19:04:52.247Z,83.49
2019-03-09T19:07:22.473Z,83.75
2019-03-09T19:09:53.744Z,84.73
2019-03-09T19:12:26.623Z,86.63
2019-03-09T19:14:57.085Z,88.13
2019-03-09T19:17:28.376Z,88.06
2019-03-09T19:19:58.902Z,88.56
2019-03-09T19:22:34.299Z,88.30
2019-03-09T19:25:05.533Z,87.07
2019-03-09T19:27:38.185Z,86.97
2019-03-09T19:30:10.092Z,86.89
2019-03-09T19:32:40.388Z,87.01
2019-03-09T19:35:10.821Z,87.13
2019-03-09T19:37:41.164Z,86.55
2019-03-09T19:40:13.631Z,87.22
2019-03-09T19:42:44.224Z,86.91
2019-03-09T19:45:16.357Z,87.45
2019-03-09T19:47:47.722Z,87.57
2019-03-09T19:50:19.873Z,87.42
2019-03-09T19:52:52.274Z,87.40
2019-03-09T19:55:23.263Z,86.67
2019-03-09T19:57:54.071Z,85.62
2019-03-09T20:00:24.511Z,85.26
2019-03-09T20:02:55.253Z,84.92
2019-03-09T20:05:25.950Z,84.67
2019-03-09T20:08:00.221Z,83.07
2019-03-09T20:10:30.853Z,83.30
2019-03-09T20:13:03.376Z,81.63
2019-03-09T20:15:33.771Z,81.65
2019-03-09T20:18:08.563Z,81.12
2019-03-09T20:20:39.794Z,79.58
2019-03-09T20:23:13.284Z,77.08
2019-03-09T20:25:44.835Z,75.80
2019-03-09T20:28:15.290Z,73.34
2019-03-09T20:30:47.915Z,71.29
2019-03-09T20:33:18.439Z,70.33
2019-03-09T20:35:49.255Z,70.52
2019-03-09T20:38:19.628Z,70.94
2019-03-09T20:40:50.025Z,71.13
2019-03-09T20:43:20.345Z,70.27
2019-03-09T20:45:52.819Z,70.00
2019-03-09T20:48:23.148Z,69.99
2019-03-09T20:50:53.518Z,69.72
2019-03-09T20:53:24.178Z,70.27
2019-03-09T20:55:54.570Z,69.27
2019-03-09T20:58:24.876Z,69.54
2019-03-09T21:00:55.167Z,68.61
2019-03-09T21:03:25.543Z,69.51
2019-03-09T21:05:57.892Z,69.10
2019-03-09T21:08:28.236Z,67.88
2019-03-09T21:11:03.902Z,68.37
2019-03-09T21:13:31.170Z,67.93
2019-03-09T21:16:01.452Z,67.49
2019-03-09T21:18:31.769Z,67.23
2019-03-09T21:21:02.056Z,67.08
2019-03-09T21:23:32.468Z,66.93
2019-03-09T21:26:02.883Z,66.75
2019-03-09T21:28:33.429Z,66.40
2019-03-09T21:31:05.833Z,66.55
2019-03-09T21:33:36.211Z,66.17
2019-03-09T21:36:06.693Z,65.09
2019-03-09T21:38:38.216Z,66.09
2019-03-09T21:41:08.576Z,66.10
2019-03-09T21:43:39.091Z,66.11
2019-03-09T21:46:09.532Z,67.21
2019-03-09T21:48:41.996Z,67.08
2019-03-09T21:51:12.362Z,67.10
2019-03-09T21:53:42.763Z,67.95
2019-03-09T21:56:13.041Z,68.16
2019-03-09T21:58:43.426Z,67.89
2019-03-09T22:01:13.704Z,67.67
2019-03-09T22:03:44.025Z,67.85
2019-03-09T22:06:14.310Z,67.52
2019-03-09T22:08:44.560Z,67.50
2019-03-09T22:11:14.889Z,68.11
2019-03-09T22:13:45.646Z,68.32
2019-03-09T22:16:15.973Z,68.73
2019-03-09T22:18:46.276Z,69.31
2019-03-09T22:21:16.479Z,69.31
2019-03-09T22:23:46.789Z,69.23
2019-03-09T22:26:17.171Z,69.53
2019-03-09T22:28:47.442Z,69.61
2019-03-09T22:31:17.650Z,69.78
2019-03-09T22:33:48.099Z,69.69
2019-03-09T22:36:18.368Z,69.04
2019-03-09T22:38:50.016Z,69.46
2019-03-09T22:41:20.244Z,69.16
2019-03-09T22:43:50.551Z,68.97
2019-03-09T22:46:20.853Z,68.79
2019-03-09T22:48:51.092Z,69.21
2019-03-09T22:51:21.380Z,68.76
2019-03-09T22:53:51.799Z,68.70
2019-03-09T22:56:22.146Z,69.44
2019-03-09T22:58:52.322Z,69.36
2019-03-09T23:01:22.663Z,69.80
2019-03-09T23:03:53.011Z,70.52
2019-03-09T23:06:23.229Z,70.48
2019-03-09T23:08:53.577Z,70.85
2019-03-09T23:11:23.937Z,71.22
2019-03-09T23:13:56.215Z,71.33
2019-03-09T23:16:26.522Z,71.39
2019-03-09T23:18:56.935Z,71.37
2019-03-09T23:21:27.210Z,71.25
2019-03-09T23:23:57.429Z,70.68
2019-03-09T23:26:27.740Z,71.16
2019-03-09T23:28:58.590Z,71.14
2019-03-09T23:31:29.170Z,70.65
2019-03-09T23:33:59.695Z,70.44
2019-03-09T23:36:29.953Z,70.60
2019-03-09T23:39:00.227Z,70.40
2019-03-09T23:41:30.542Z,70.86
2019-03-09T23:44:01.083Z,70.03
2019-03-09T23:46:31.290Z,69.58
2019-03-09T23:49:01.491Z,69.28
2019-03-09T23:51:31.716Z,69.02
2019-03-09T23:54:03.095Z,68.39
2019-03-09T23:56:33.344Z,67.83
2019-03-09T23:59:03.649Z,68.04
